首页
METAR-TAF:

METAR-TAF

机场 :

米登霍爾皇家空軍基地

Mildenhall, 英格兰

纬度: 52-22N, 经度: 000-29E, 海拔: 10米

当前天气观测

该预报发布于43分钟前的07:19 UTC
风速1节,风向
温度 3°C
湿度 100%
气压 1037 hPa
能見度: 0400
阴天层高于400英尺

METAR: EGUN 220719Z 18001KT 0400 FG OVC004 03/03 A3062 RMK SLPNO WND DATA ESTMD ALTSG ESTMD RVRNO $

时间: 08:02 (08:02 UTC)

预报

该预报发布于4小时和2分钟前的04:00 UTC
预报有效从22日的 04点(UTC)到 23日的 10点(UTC)
风速3节,风向多变
能見度: 0200
阴天层高于200英尺
成为
从 22日的 08点(UTC)到 22日的 09点(UTC)
风速3节,风向多变
能見度: 3200
多云层高于2500英尺
轻雾
成为
从 22日的 12点(UTC)到 22日的 13点(UTC)
风速3节,风向多变
能见度10公里或以上
多云层高于2000英尺
成为
从 22日的 17点(UTC)到 22日的 18点(UTC)
风速3节,风向多变
能見度: 3200
阴天层高于1500英尺
轻雾
成为
从 22日的 23点(UTC)到 22日的 24点(UTC)
风速3节,风向多变
能見度: 0800
阴天层高于400英尺

TAF: EGUN 220400Z 2204/2310 VRB03KT 0200 FG OVC002 QNH3062INS BECMG 2208/2209 VRB03KT 3200 BR BKN025 QNH3064INS BECMG 2212/2213 VRB03KT 9999 NSW BKN020 QNH3062INS BECMG 2217/2218 VRB03KT 3200 BR OVC015 QNH3060INS BECMG 2223/2224 VRB03KT 0800 FG OVC004 QNH3052INS TX06/2214Z TN02/2204Z

超过4000个机场的气象观测和天气预报(METAR&TAF报告)。

可查询的气象台以黄色和红色小点在地图上表示。

将鼠标移到小点上方,可查看气象台名称。

然后点击查看天气观测和预报。

如需切换地图:点击带黑十字的绿色按钮放大地图;点击带横线的绿色按钮缩小地图;或者点击绿色箭头查看邻近地区的地图。


METAR-TAF: